Time;durP1;ratioP1;P1;durP2;ratioP2;P2;SDS_P1;SDS_P2;PMS_P1;PMS_P2;Temp;Humidity;BMP_temperature;BMP_pressure;BME280_temperature;BME280_humidity;BME280_pressure;Samples;Min_cycle;Max_cycle;Signal;HPM_P1;HPM_P2
2023/08/29 00:00:53;;;;;;;2.02;1.82;;;17.30;95.90;;;;;;947431;148;27445;-76
2023/08/29 00:03:20;;;;;;;2.15;1.98;;;17.30;95.80;;;;;;947223;148;27360;-75
2023/08/29 00:05:47;;;;;;;1.98;1.80;;;17.30;96.20;;;;;;947391;148;27324;-75
2023/08/29 00:08:13;;;;;;;2.20;1.77;;;17.30;95.80;;;;;;947786;148;27679;-74
2023/08/29 00:10:40;;;;;;;2.10;2.00;;;17.30;96.00;;;;;;946584;148;27473;-76
2023/08/29 00:13:06;;;;;;;1.98;1.87;;;17.30;96.00;;;;;;947200;148;27344;-75
2023/08/29 00:15:33;;;;;;;2.12;1.92;;;17.30;96.20;;;;;;947381;148;27336;-75
2023/08/29 00:18:00;;;;;;;2.02;1.82;;;17.30;96.30;;;;;;946927;148;27324;-75
2023/08/29 00:20:26;;;;;;;2.30;2.10;;;17.30;96.30;;;;;;967413;145;27330;-74
2023/08/29 00:22:53;;;;;;;1.95;1.85;;;17.20;96.50;;;;;;967925;145;27345;-76
2023/08/29 00:25:19;;;;;;;2.40;2.20;;;17.20;96.60;;;;;;967366;145;27416;-76
2023/08/29 00:27:46;;;;;;;2.67;2.47;;;17.20;96.80;;;;;;965389;145;27466;-76
2023/08/29 00:30:13;;;;;;;2.35;2.02;;;17.20;97.00;;;;;;936161;149;28223;-76
2023/08/29 00:32:40;;;;;;;2.08;1.95;;;17.20;97.10;;;;;;934984;150;27385;-74
2023/08/29 00:35:06;;;;;;;2.98;2.10;;;17.20;97.30;;;;;;934759;150;27353;-76
2023/08/29 00:37:33;;;;;;;2.27;1.98;;;17.20;97.40;;;;;;934278;150;27332;-76
2023/08/29 00:39:59;;;;;;;3.22;2.35;;;17.20;97.70;;;;;;934995;150;27772;-75
2023/08/29 00:42:26;;;;;;;2.10;2.00;;;17.20;97.90;;;;;;934928;150;27287;-75
2023/08/29 00:44:52;;;;;;;2.50;1.90;;;17.20;98.00;;;;;;935152;150;27366;-76
2023/08/29 00:47:19;;;;;;;2.22;2.02;;;17.20;98.30;;;;;;934721;150;27335;-76
2023/08/29 00:49:45;;;;;;;2.00;1.90;;;17.20;98.40;;;;;;934709;150;27441;-76
2023/08/29 00:52:12;;;;;;;3.80;2.00;;;17.20;98.50;;;;;;934811;150;27419;-74
2023/08/29 00:54:38;;;;;;;1.98;1.87;;;17.20;98.60;;;;;;935017;150;27381;-71
2023/08/29 00:57:05;;;;;;;2.42;2.12;;;17.20;98.60;;;;;;935137;150;27357;-72
2023/08/29 00:59:32;;;;;;;2.12;2.02;;;17.20;98.60;;;;;;934331;150;27314;-73
2023/08/29 01:01:58;;;;;;;2.08;1.98;;;17.30;98.70;;;;;;934412;150;27329;-73
2023/08/29 01:04:25;;;;;;;2.08;1.98;;;17.30;98.70;;;;;;934130;150;27464;-74
2023/08/29 01:06:54;;;;;;;2.58;2.40;;;17.40;98.80;;;;;;935047;150;27373;-72
2023/08/29 01:09:18;;;;;;;2.40;2.00;;;17.40;98.70;;;;;;934568;150;27527;-73
2023/08/29 01:11:45;;;;;;;1.87;1.77;;;17.40;98.80;;;;;;934842;150;27326;-72
2023/08/29 01:14:33;;;;;;;2.10;2.00;;;17.40;98.80;;;;;;934266;150;27315;-74
2023/08/29 01:17:17;;;;;;;2.00;1.90;;;17.50;98.70;;;;;;934780;150;27375;-75
2023/08/29 01:19:44;;;;;;;2.37;1.90;;;17.50;98.30;;;;;;927576;150;27458;-73
2023/08/29 01:22:10;;;;;;;1.70;1.60;;;17.50;98.20;;;;;;933901;150;27444;-74
2023/08/29 01:24:40;;;;;;;1.67;1.62;;;17.50;98.40;;;;;;934917;149;27347;-73
2023/08/29 01:27:06;;;;;;;1.92;1.82;;;17.50;98.30;;;;;;926864;151;27468;-76
2023/08/29 01:29:33;;;;;;;2.75;1.80;;;17.50;98.30;;;;;;946230;148;27476;-73
2023/08/29 01:31:59;;;;;;;1.72;1.62;;;17.60;98.20;;;;;;967735;145;27332;-72
2023/08/29 01:34:26;;;;;;;2.17;1.70;;;17.60;98.20;;;;;;966760;145;27290;-73
2023/08/29 01:36:52;;;;;;;1.90;1.60;;;17.60;98.10;;;;;;967896;145;27337;-75
2023/08/29 01:39:19;;;;;;;1.85;1.70;;;17.60;98.00;;;;;;967249;145;27435;-73
2023/08/29 01:41:46;;;;;;;1.85;1.75;;;17.60;97.90;;;;;;966689;145;28574;-72
2023/08/29 01:44:12;;;;;;;2.52;2.00;;;17.60;97.80;;;;;;967684;145;27482;-73
2023/08/29 01:46:39;;;;;;;1.70;1.60;;;17.60;97.80;;;;;;967282;145;27338;-74
2023/08/29 01:49:05;;;;;;;2.08;1.82;;;17.60;97.80;;;;;;953464;148;27476;-76
2023/08/29 01:51:32;;;;;;;1.80;1.70;;;17.60;97.80;;;;;;966948;145;27761;-72
2023/08/29 01:53:59;;;;;;;2.27;1.80;;;17.60;97.60;;;;;;967540;145;27333;-73
2023/08/29 01:56:25;;;;;;;1.65;1.55;;;17.60;97.60;;;;;;947167;148;27332;-73
2023/08/29 01:58:52;;;;;;;1.85;1.52;;;17.60;97.70;;;;;;946251;148;27381;-76
2023/08/29 02:01:18;;;;;;;2.42;1.80;;;17.60;97.80;;;;;;946812;148;27361;-75
2023/08/29 02:03:45;;;;;;;2.10;2.00;;;17.50;97.70;;;;;;946484;148;27418;-73
2023/08/29 02:06:12;;;;;;;2.80;2.00;;;17.50;97.60;;;;;;946457;148;27433;-73
2023/08/29 02:08:38;;;;;;;1.98;1.87;;;17.50;97.60;;;;;;946310;148;27326;-75
2023/08/29 02:11:05;;;;;;;3.50;2.00;;;17.50;97.90;;;;;;946475;148;27387;-76
2023/08/29 02:13:31;;;;;;;2.08;1.85;;;17.50;97.60;;;;;;947492;148;27444;-72
2023/08/29 02:15:58;;;;;;;1.75;1.65;;;17.50;97.70;;;;;;945469;148;27375;-73
2023/08/29 02:18:25;;;;;;;2.90;1.65;;;17.50;97.70;;;;;;950930;148;27782;-76
2023/08/29 02:20:51;;;;;;;1.90;1.80;;;17.50;97.60;;;;;;949908;148;27341;-76
2023/08/29 02:23:18;;;;;;;1.50;1.40;;;17.50;97.70;;;;;;950810;148;27373;-73
2023/08/29 02:25:44;;;;;;;1.70;1.60;;;17.40;97.70;;;;;;949535;148;27319;-72
2023/08/29 02:28:11;;;;;;;2.00;1.90;;;17.40;97.70;;;;;;951044;148;27830;-74
2023/08/29 02:30:37;;;;;;;2.25;1.90;;;17.40;97.70;;;;;;951942;148;27374;-73
2023/08/29 02:33:04;;;;;;;1.75;1.65;;;17.40;97.80;;;;;;951311;148;27732;-76
2023/08/29 02:35:31;;;;;;;2.25;1.62;;;17.40;97.80;;;;;;951239;148;27380;-73
2023/08/29 02:37:57;;;;;;;2.20;1.90;;;17.40;97.80;;;;;;951628;148;27326;-73
2023/08/29 02:40:24;;;;;;;2.00;1.67;;;17.40;97.80;;;;;;951286;148;27275;-73
2023/08/29 02:42:50;;;;;;;1.77;1.67;;;17.30;97.80;;;;;;951606;148;27397;-75
2023/08/29 02:45:17;;;;;;;5.20;1.98;;;17.40;97.80;;;;;;950802;148;27382;-73
2023/08/29 02:47:44;;;;;;;2.58;1.70;;;17.30;97.80;;;;;;950555;148;27665;-73
2023/08/29 02:50:10;;;;;;;2.15;2.00;;;17.30;97.90;;;;;;950584;148;27414;-72
2023/08/29 02:52:37;;;;;;;4.58;2.00;;;17.30;97.90;;;;;;950389;148;27266;-75
2023/08/29 02:55:03;;;;;;;1.80;1.70;;;17.30;97.90;;;;;;949981;148;27377;-73
2023/08/29 02:57:30;;;;;;;2.35;1.75;;;17.30;98.00;;;;;;950684;148;27349;-72
2023/08/29 02:59:58;;;;;;;1.37;1.37;;;17.20;98.10;;;;;;950789;148;27367;-75
2023/08/29 03:02:23;;;;;;;1.47;1.37;;;17.20;98.10;;;;;;966639;145;27433;-73
2023/08/29 03:04:50;;;;;;;1.60;1.50;;;17.20;98.20;;;;;;949276;148;27880;-76
2023/08/29 03:07:16;;;;;;;1.47;1.45;;;17.20;98.20;;;;;;966148;145;27437;-72
2023/08/29 03:09:43;;;;;;;1.65;1.55;;;17.20;98.20;;;;;;966251;145;27313;-72
2023/08/29 03:12:09;;;;;;;1.98;1.72;;;17.20;98.30;;;;;;951125;148;27434;-73
2023/08/29 03:14:36;;;;;;;1.55;1.50;;;17.20;98.30;;;;;;966574;145;27306;-73
2023/08/29 03:17:03;;;;;;;1.70;1.60;;;17.20;98.30;;;;;;967732;145;27341;-73
2023/08/29 03:19:29;;;;;;;1.72;1.62;;;17.20;98.00;;;;;;967230;148;27321;-74
2023/08/29 03:21:56;;;;;;;1.87;1.70;;;17.20;98.30;;;;;;950838;148;27384;-73
2023/08/29 03:24:22;;;;;;;1.98;1.55;;;17.20;98.40;;;;;;966411;148;27671;-73
2023/08/29 03:26:50;;;;;;;1.72;1.60;;;17.20;98.50;;;;;;967656;145;27336;-76
2023/08/29 03:29:16;;;;;;;1.85;1.75;;;17.20;98.60;;;;;;967412;145;27357;-75
2023/08/29 03:31:42;;;;;;;1.77;1.67;;;17.20;98.60;;;;;;954854;147;27391;-72
2023/08/29 03:34:09;;;;;;;1.67;1.52;;;17.20;98.60;;;;;;954647;147;27285;-72
2023/08/29 03:36:35;;;;;;;1.45;1.45;;;17.20;98.60;;;;;;955245;147;27350;-76
2023/08/29 03:39:03;;;;;;;2.08;1.70;;;17.20;98.70;;;;;;954116;147;27456;-72
2023/08/29 03:41:29;;;;;;;1.80;1.62;;;17.20;98.50;;;;;;942158;149;27420;-74
2023/08/29 03:43:55;;;;;;;1.70;1.60;;;17.20;98.50;;;;;;954069;147;27342;-72
2023/08/29 03:46:22;;;;;;;2.55;1.50;;;17.20;98.60;;;;;;955235;147;27329;-76
2023/08/29 03:48:48;;;;;;;1.60;1.50;;;17.20;98.50;;;;;;955096;147;27407;-72
2023/08/29 03:51:15;;;;;;;1.60;1.50;;;17.20;98.60;;;;;;954945;147;27453;-72
2023/08/29 03:53:41;;;;;;;1.90;1.80;;;17.20;98.50;;;;;;954235;147;27920;-76
2023/08/29 03:56:08;;;;;;;1.85;1.65;;;17.20;98.50;;;;;;942249;149;27262;-73
2023/08/29 03:58:35;;;;;;;2.75;1.60;;;17.20;98.50;;;;;;955181;147;27428;-73
2023/08/29 04:01:03;;;;;;;2.30;1.70;;;17.20;98.60;;;;;;934439;150;27339;-73
2023/08/29 04:03:28;;;;;;;1.75;1.50;;;17.20;98.60;;;;;;934640;150;27408;-74
2023/08/29 04:05:54;;;;;;;1.60;1.50;;;17.20;98.50;;;;;;934620;150;27327;-73
2023/08/29 04:08:21;;;;;;;2.00;1.60;;;17.20;98.60;;;;;;935131;150;27491;-75
2023/08/29 04:10:48;;;;;;;1.90;1.47;;;17.20;98.70;;;;;;934052;150;27386;-74
2023/08/29 04:13:14;;;;;;;1.57;1.47;;;17.20;98.70;;;;;;935136;150;27411;-73
2023/08/29 04:15:41;;;;;;;1.87;1.32;;;17.20;98.80;;;;;;934491;150;27330;-73
2023/08/29 04:18:10;;;;;;;1.60;1.50;;;17.20;98.80;;;;;;934697;150;27322;-74
2023/08/29 04:20:34;;;;;;;1.90;1.70;;;17.10;98.80;;;;;;933410;150;27366;-75
2023/08/29 04:23:03;;;;;;;1.60;1.50;;;17.10;99.00;;;;;;933808;150;27365;-76
2023/08/29 04:25:27;;;;;;;1.62;1.52;;;17.10;98.90;;;;;;933491;150;27401;-76
2023/08/29 04:27:54;;;;;;;2.33;1.57;;;17.10;99.00;;;;;;934708;150;27275;-76
2023/08/29 04:30:20;;;;;;;1.57;1.47;;;17.10;99.10;;;;;;940555;149;27397;-76
2023/08/29 04:32:52;;;;;;;1.80;1.70;;;17.10;99.10;;;;;;950800;148;27384;-76
2023/08/29 04:35:16;;;;;;;2.08;1.98;;;17.10;99.10;;;;;;965713;145;27497;-76
2023/08/29 04:37:46;;;;;;;2.15;1.70;;;17.10;99.20;;;;;;967060;145;27303;-76
2023/08/29 04:40:12;;;;;;;2.00;1.90;;;17.10;99.20;;;;;;967316;145;27393;-76
2023/08/29 04:42:40;;;;;;;2.02;1.92;;;17.10;99.20;;;;;;951993;148;27437;-76
2023/08/29 04:45:06;;;;;;;1.65;1.55;;;17.10;99.30;;;;;;951523;149;27437;-76
2023/08/29 04:47:32;;;;;;;2.72;1.52;;;17.10;99.40;;;;;;951544;148;27424;-76
2023/08/29 04:50:02;;;;;;;5.30;2.40;;;17.10;99.50;;;;;;951667;149;27656;-76
2023/08/29 04:52:28;;;;;;;1.62;1.52;;;17.10;99.50;;;;;;967092;145;27805;-76
2023/08/29 04:54:55;;;;;;;1.85;1.75;;;17.10;99.60;;;;;;967362;145;27368;-76
2023/08/29 04:57:21;;;;;;;1.72;1.62;;;17.10;99.60;;;;;;967784;145;27334;-76
2023/08/29 04:59:48;;;;;;;1.60;1.50;;;17.10;99.70;;;;;;967542;145;27316;-76
2023/08/29 05:02:14;;;;;;;1.87;1.65;;;17.10;99.80;;;;;;967772;145;27367;-76
2023/08/29 05:04:42;;;;;;;1.80;1.70;;;17.10;99.80;;;;;;968158;145;27421;-76
2023/08/29 05:07:08;;;;;;;1.65;1.55;;;17.10;99.90;;;;;;967401;145;27755;-76
2023/08/29 05:09:34;;;;;;;2.70;1.60;;;17.10;99.90;;;;;;967181;145;27338;-76
2023/08/29 05:12:01;;;;;;;2.92;2.30;;;17.10;99.90;;;;;;967294;145;27329;-76
2023/08/29 05:14:27;;;;;;;2.45;1.70;;;17.10;99.90;;;;;;966945;145;27332;-76
2023/08/29 05:16:54;;;;;;;2.42;1.50;;;17.10;99.90;;;;;;966876;145;27451;-76
2023/08/29 05:19:21;;;;;;;2.22;1.80;;;17.10;99.90;;;;;;967449;145;27416;-76
2023/08/29 05:21:47;;;;;;;2.45;1.70;;;17.20;99.90;;;;;;967357;145;27417;-76
2023/08/29 05:24:14;;;;;;;2.47;1.95;;;17.20;99.90;;;;;;967083;145;27332;-76
2023/08/29 05:26:40;;;;;;;2.40;1.62;;;17.20;99.90;;;;;;967628;145;27431;-76
2023/08/29 05:29:07;;;;;;;1.80;1.70;;;17.20;99.90;;;;;;966931;145;27465;-76
2023/08/29 05:31:34;;;;;;;2.62;1.60;;;17.20;99.90;;;;;;962208;145;27412;-75
2023/08/29 05:34:00;;;;;;;2.12;1.55;;;17.20;99.90;;;;;;966234;145;27721;-75
2023/08/29 05:36:27;;;;;;;2.00;1.80;;;17.30;99.90;;;;;;967008;145;27342;-75
2023/08/29 05:38:53;;;;;;;2.33;1.98;;;17.30;99.90;;;;;;966766;145;27365;-75
2023/08/29 05:41:20;;;;;;;1.60;1.50;;;17.30;99.90;;;;;;967177;145;27403;-75
2023/08/29 05:43:46;;;;;;;1.70;1.60;;;17.40;99.90;;;;;;966724;145;27259;-75
2023/08/29 05:46:13;;;;;;;1.75;1.60;;;17.40;99.90;;;;;;968145;145;27337;-76
2023/08/29 05:51:18;;;;;;;3.08;2.00;;;17.40;99.90;;;;;;971748;144;37114;-74
2023/08/29 05:53:44;;;;;;;2.95;1.67;;;17.50;99.90;;;;;;956508;146;27320;-76
2023/08/29 05:56:11;;;;;;;2.00;1.85;;;17.50;99.90;;;;;;957642;147;27362;-76
2023/08/29 05:58:37;;;;;;;2.25;1.72;;;17.60;99.90;;;;;;958397;148;27359;-76
2023/08/29 06:01:06;;;;;;;1.92;1.47;;;17.70;99.90;;;;;;958012;148;27304;-76
2023/08/29 06:03:31;;;;;;;1.50;1.40;;;17.70;99.90;;;;;;958085;148;27283;-76
2023/08/29 06:05:57;;;;;;;2.10;2.00;;;17.80;99.90;;;;;;957349;147;27315;-76
2023/08/29 06:08:25;;;;;;;2.00;1.80;;;17.80;99.90;;;;;;953699;147;27393;-76
2023/08/29 06:10:50;;;;;;;1.70;1.60;;;17.90;99.90;;;;;;939238;150;27357;-76
2023/08/29 06:13:17;;;;;;;4.40;2.35;;;18.00;99.90;;;;;;938798;152;27463;-76
2023/08/29 06:15:44;;;;;;;2.33;1.82;;;18.00;99.90;;;;;;938676;151;27367;-76
2023/08/29 06:18:10;;;;;;;2.55;1.67;;;18.10;99.90;;;;;;939176;149;27426;-76
2023/08/29 06:20:37;;;;;;;2.00;1.90;;;18.20;99.90;;;;;;939375;149;27360;-75
2023/08/29 06:23:03;;;;;;;2.70;2.30;;;18.20;99.90;;;;;;938643;149;27333;-75
2023/08/29 06:25:30;;;;;;;1.52;1.45;;;18.30;99.90;;;;;;939736;149;27369;-76
2023/08/29 06:27:57;;;;;;;1.77;1.67;;;18.40;99.90;;;;;;940663;150;27321;-75
2023/08/29 06:30:23;;;;;;;3.92;1.70;;;18.50;99.90;;;;;;940697;149;27413;-75
2023/08/29 06:32:50;;;;;;;1.72;1.62;;;18.50;99.90;;;;;;938395;149;27357;-75
2023/08/29 06:35:17;;;;;;;1.65;1.55;;;18.60;99.90;;;;;;939063;150;27425;-75
2023/08/29 06:37:43;;;;;;;2.25;1.52;;;18.70;99.90;;;;;;940623;150;28091;-75
2023/08/29 06:40:10;;;;;;;2.17;1.55;;;18.80;99.90;;;;;;941208;149;27381;-76
2023/08/29 06:42:36;;;;;;;2.25;1.92;;;18.90;99.90;;;;;;938934;152;27450;-73
2023/08/29 06:45:03;;;;;;;1.67;1.57;;;19.10;99.80;;;;;;939296;150;27358;-75
2023/08/29 06:47:29;;;;;;;1.70;1.60;;;19.20;99.60;;;;;;939519;151;27772;-75
2023/08/29 06:49:56;;;;;;;2.60;1.70;;;19.30;99.50;;;;;;940243;149;27401;-76
2023/08/29 06:52:22;;;;;;;1.60;1.50;;;19.40;98.90;;;;;;939881;149;27451;-73
2023/08/29 06:54:49;;;;;;;3.05;1.80;;;19.50;98.60;;;;;;939827;149;27477;-73
2023/08/29 06:57:16;;;;;;;1.65;1.55;;;19.70;98.40;;;;;;940710;149;27334;-73
2023/08/29 06:59:42;;;;;;;1.50;1.40;;;19.80;98.00;;;;;;940433;151;27337;-75
2023/08/29 07:02:09;;;;;;;1.45;1.35;;;19.90;97.40;;;;;;938350;150;27358;-76
2023/08/29 07:04:35;;;;;;;3.33;1.70;;;20.00;96.70;;;;;;939328;149;27377;-73
2023/08/29 07:07:02;;;;;;;2.02;1.67;;;20.10;96.50;;;;;;939393;149;27457;-74
2023/08/29 07:09:30;;;;;;;1.62;1.52;;;20.20;96.00;;;;;;940465;149;27464;-74
2023/08/29 07:11:55;;;;;;;2.92;1.75;;;20.30;95.60;;;;;;940368;151;27514;-76
2023/08/29 07:14:22;;;;;;;1.55;1.45;;;20.40;95.20;;;;;;940874;149;27492;-74
2023/08/29 07:16:48;;;;;;;1.60;1.50;;;20.40;94.40;;;;;;938992;149;27321;-75
2023/08/29 07:19:15;;;;;;;1.25;1.20;;;20.50;94.10;;;;;;938422;149;27336;-74
2023/08/29 07:21:41;;;;;;;1.70;1.60;;;20.60;93.80;;;;;;939962;149;27758;-74
2023/08/29 07:24:08;;;;;;;1.95;1.55;;;20.70;93.70;;;;;;938938;149;27454;-74
2023/08/29 07:26:35;;;;;;;1.75;1.62;;;20.80;93.60;;;;;;938230;151;27383;-73
2023/08/29 07:29:02;;;;;;;1.30;1.20;;;20.90;93.50;;;;;;940786;149;27330;-73
2023/08/29 07:31:28;;;;;;;3.60;1.77;;;21.00;93.40;;;;;;938887;151;27488;-74
2023/08/29 07:33:54;;;;;;;2.17;1.50;;;21.10;93.40;;;;;;938700;149;27431;-76
2023/08/29 07:36:21;;;;;;;1.37;1.32;;;21.30;93.60;;;;;;940207;149;27442;-73
2023/08/29 07:38:48;;;;;;;2.52;1.65;;;21.60;93.40;;;;;;937883;149;27340;-76
2023/08/29 07:41:14;;;;;;;2.35;1.30;;;21.80;92.70;;;;;;937421;149;27424;-74
2023/08/29 07:43:41;;;;;;;1.27;1.20;;;22.10;92.00;;;;;;937788;151;27867;-75
2023/08/29 07:46:08;;;;;;;1.80;1.17;;;22.30;91.10;;;;;;938598;149;27439;-73
2023/08/29 07:48:34;;;;;;;1.50;1.30;;;22.60;90.30;;;;;;939262;151;27799;-73
2023/08/29 07:51:01;;;;;;;2.22;1.40;;;22.80;88.00;;;;;;938503;152;27367;-74
2023/08/29 07:53:27;;;;;;;1.85;1.60;;;23.00;85.70;;;;;;933880;150;27340;-74
2023/08/29 07:55:54;;;;;;;1.15;1.00;;;23.10;83.70;;;;;;933844;151;27370;-73
2023/08/29 07:58:20;;;;;;;1.27;1.17;;;23.20;82.70;;;;;;934457;152;27436;-74
2023/08/29 08:00:47;;;;;;;3.58;1.15;;;23.20;81.50;;;;;;933170;152;27327;-74
2023/08/29 08:03:13;;;;;;;1.50;1.27;;;23.30;81.20;;;;;;934033;151;27360;-73
2023/08/29 08:05:40;;;;;;;1.20;1.10;;;23.40;80.90;;;;;;934273;151;27428;-76
2023/08/29 08:08:07;;;;;;;1.17;1.10;;;23.40;80.20;;;;;;930982;150;27469;-72
2023/08/29 08:10:33;;;;;;;3.22;1.20;;;23.50;79.40;;;;;;932011;152;27365;-76
2023/08/29 08:13:00;;;;;;;2.12;1.27;;;23.60;78.60;;;;;;934322;153;28064;-74
2023/08/29 08:15:26;;;;;;;1.40;1.30;;;23.60;78.20;;;;;;933534;152;27336;-76
2023/08/29 08:17:53;;;;;;;4.65;1.52;;;23.60;77.90;;;;;;931804;152;27481;-74
2023/08/29 08:20:20;;;;;;;1.50;1.40;;;23.70;77.60;;;;;;932515;152;27334;-73
2023/08/29 08:22:46;;;;;;;2.45;1.40;;;23.70;77.50;;;;;;932730;150;27348;-75
2023/08/29 08:25:13;;;;;;;2.22;1.05;;;23.90;77.80;;;;;;934642;149;27343;-74
2023/08/29 08:27:42;;;;;;;1.67;1.45;;;24.00;77.60;;;;;;934326;151;27351;-74
2023/08/29 08:30:07;;;;;;;2.17;1.40;;;24.10;76.80;;;;;;931884;152;27383;-71
2023/08/29 08:32:33;;;;;;;1.22;1.10;;;24.20;76.30;;;;;;932975;153;28445;-71
2023/08/29 08:35:00;;;;;;;1.02;1.00;;;24.30;76.00;;;;;;933547;150;27324;-71
2023/08/29 08:37:26;;;;;;;1.70;1.12;;;24.50;75.60;;;;;;936031;151;27296;-71
2023/08/29 08:39:53;;;;;;;2.02;1.07;;;24.70;75.10;;;;;;931821;152;27389;-74
2023/08/29 08:42:19;;;;;;;1.47;1.37;;;24.80;74.80;;;;;;932266;153;27376;-71
2023/08/29 08:44:46;;;;;;;2.00;1.60;;;25.00;74.00;;;;;;933818;151;27264;-70
2023/08/29 08:47:13;;;;;;;3.10;1.95;;;25.20;73.00;;;;;;934573;151;27433;-72
2023/08/29 08:49:39;;;;;;;1.17;1.10;;;25.30;72.30;;;;;;933341;152;27334;-72
2023/08/29 08:52:06;;;;;;;1.90;1.22;;;25.30;71.90;;;;;;936032;152;27511;-70
2023/08/29 08:54:32;;;;;;;2.05;1.40;;;25.50;71.40;;;;;;939578;151;28284;-71
2023/08/29 08:56:59;;;;;;;1.50;1.17;;;25.50;70.80;;;;;;938375;149;27339;-72
2023/08/29 08:59:25;;;;;;;1.77;1.40;;;25.60;70.10;;;;;;939382;151;27336;-73
2023/08/29 09:01:52;;;;;;;1.45;1.35;;;25.60;69.80;;;;;;941303;151;27369;-74
2023/08/29 09:04:19;;;;;;;1.35;1.10;;;25.70;69.50;;;;;;938697;151;27378;-72
2023/08/29 09:06:45;;;;;;;2.02;1.10;;;25.70;69.20;;;;;;938829;151;27416;-72
2023/08/29 09:09:22;;;;;;;1.82;1.20;;;25.70;68.90;;;;;;937549;151;27833;-73
2023/08/29 09:11:53;;;;;;;2.98;1.30;;;25.80;68.30;;;;;;938382;152;27436;-74
2023/08/29 09:14:19;;;;;;;1.95;1.40;;;25.90;69.30;;;;;;939940;152;27482;-72
2023/08/29 09:16:46;;;;;;;1.32;1.27;;;26.10;69.10;;;;;;938149;151;27724;-72
2023/08/29 09:19:13;;;;;;;5.25;1.07;;;26.20;69.00;;;;;;939421;149;27432;-73
2023/08/29 09:21:39;;;;;;;2.10;1.05;;;26.40;68.90;;;;;;940146;151;27415;-73
2023/08/29 09:24:09;;;;;;;1.67;1.05;;;26.60;68.60;;;;;;938190;151;27354;-72
2023/08/29 09:26:32;;;;;;;1.40;1.02;;;26.90;68.40;;;;;;939482;149;27386;-72
2023/08/29 09:28:59;;;;;;;1.57;1.30;;;27.10;67.90;;;;;;940274;152;27412;-72
2023/08/29 09:31:26;;;;;;;2.12;1.07;;;27.30;67.10;;;;;;940191;149;27349;-73
2023/08/29 09:33:52;;;;;;;7.22;1.50;;;27.50;66.20;;;;;;940117;151;27952;-75
2023/08/29 09:36:19;;;;;;;1.95;1.45;;;27.70;66.00;;;;;;939590;151;27457;-73
2023/08/29 09:38:45;;;;;;;1.60;1.37;;;27.90;65.80;;;;;;938695;151;27429;-72
2023/08/29 09:41:13;;;;;;;1.30;0.93;;;28.10;65.60;;;;;;938941;151;27290;-72
2023/08/29 09:43:39;;;;;;;2.42;1.30;;;28.30;64.80;;;;;;938716;149;27326;-75
2023/08/29 09:46:05;;;;;;;1.95;0.98;;;28.40;64.20;;;;;;935470;151;27445;-72
2023/08/29 09:48:33;;;;;;;3.67;1.37;;;28.60;63.70;;;;;;938114;151;27319;-72
2023/08/29 09:50:58;;;;;;;1.45;1.27;;;28.80;63.00;;;;;;939370;151;27291;-73
2023/08/29 09:53:25;;;;;;;1.07;1.07;;;28.90;62.20;;;;;;935480;151;27365;-73
2023/08/29 09:56:00;;;;;;;2.10;1.20;;;29.00;61.70;;;;;;933692;152;27383;-72
2023/08/29 09:58:27;;;;;;;1.07;1.00;;;29.10;60.80;;;;;;933148;153;27362;-72
2023/08/29 10:00:53;;;;;;;1.02;1.00;;;29.20;60.40;;;;;;932925;151;27332;-72
2023/08/29 10:03:20;;;;;;;1.07;1.00;;;29.20;59.90;;;;;;933701;152;27336;-75
2023/08/29 10:05:46;;;;;;;1.00;0.90;;;29.10;59.60;;;;;;934057;150;27340;-73
2023/08/29 10:08:19;;;;;;;1.10;0.98;;;29.10;59.60;;;;;;932995;151;27407;-73
2023/08/29 10:10:45;;;;;;;1.50;1.12;;;29.00;59.40;;;;;;932068;152;27330;-74
2023/08/29 10:13:12;;;;;;;1.27;0.95;;;29.00;59.30;;;;;;933216;153;27304;-75
2023/08/29 10:15:39;;;;;;;1.12;1.00;;;28.90;59.10;;;;;;932603;151;27477;-75
2023/08/29 10:18:05;;;;;;;2.00;0.95;;;28.80;58.90;;;;;;933631;151;27437;-75
2023/08/29 10:20:32;;;;;;;1.40;0.90;;;28.60;58.60;;;;;;933925;150;27649;-75
2023/08/29 10:22:58;;;;;;;0.60;0.60;;;28.50;58.50;;;;;;934335;151;27390;-75
2023/08/29 10:25:25;;;;;;;1.05;1.00;;;28.40;58.60;;;;;;932285;150;27294;-75
2023/08/29 10:27:52;;;;;;;4.25;1.98;;;28.20;58.50;;;;;;931994;152;27372;-75
2023/08/29 10:30:18;;;;;;;2.47;1.70;;;28.10;58.50;;;;;;933058;151;27359;-75
2023/08/29 10:32:46;;;;;;;2.27;2.00;;;27.90;58.60;;;;;;916521;152;27350;-75
2023/08/29 10:35:15;;;;;;;1.57;1.27;;;27.80;58.90;;;;;;909417;153;27361;-74
2023/08/29 10:37:41;;;;;;;2.08;1.02;;;27.60;59.00;;;;;;915510;152;27463;-75
2023/08/29 10:40:09;;;;;;;1.10;1.00;;;27.50;58.80;;;;;;913734;152;27418;-75
2023/08/29 10:42:53;;;;;;;1.12;1.10;;;27.40;58.70;;;;;;931130;150;27363;-74
2023/08/29 10:45:50;;;;;;;0.80;0.80;;;27.40;58.60;;;;;;930285;150;27300;-75
2023/08/29 10:48:17;;;;;;;1.40;0.98;;;27.30;58.80;;;;;;930949;150;27329;-75
2023/08/29 10:50:43;;;;;;;1.75;0.90;;;27.20;59.00;;;;;;914695;152;27414;-75
2023/08/29 10:53:09;;;;;;;2.15;0.90;;;27.20;58.90;;;;;;916279;151;27399;-75
2023/08/29 10:55:41;;;;;;;0.75;0.75;;;27.20;58.70;;;;;;941316;149;27770;-75
2023/08/29 10:58:03;;;;;;;2.42;0.98;;;27.20;58.60;;;;;;927794;151;27509;-75
2023/08/29 11:00:35;;;;;;;2.87;0.50;;;27.20;58.40;;;;;;922644;152;27753;-75
2023/08/29 11:03:02;;;;;;;1.07;0.98;;;27.10;58.40;;;;;;944632;149;27373;-75
2023/08/29 11:05:28;;;;;;;1.37;1.10;;;27.00;58.40;;;;;;943363;149;27454;-77
2023/08/29 11:08:13;;;;;;;2.10;1.20;;;26.90;58.50;;;;;;948105;148;27462;-74
2023/08/29 11:10:40;;;;;;;1.10;0.98;;;26.90;58.30;;;;;;919538;151;27416;-74
2023/08/29 11:13:09;;;;;;;0.95;0.88;;;26.80;58.20;;;;;;943907;149;27357;-74
2023/08/29 11:15:48;;;;;;;2.35;0.78;;;26.80;58.20;;;;;;943377;148;27469;-74
2023/08/29 11:18:23;;;;;;;1.30;0.90;;;26.80;58.60;;;;;;942724;149;27446;-74
2023/08/29 11:20:47;;;;;;;0.80;0.80;;;26.80;58.40;;;;;;943185;149;27434;-72
2023/08/29 11:23:13;;;;;;;0.88;0.70;;;26.80;58.10;;;;;;942569;149;27310;-75
2023/08/29 11:25:40;;;;;;;0.75;0.75;;;26.80;58.00;;;;;;943539;149;27939;-74
2023/08/29 11:28:07;;;;;;;0.80;0.62;;;26.80;57.60;;;;;;943696;149;27310;-74
2023/08/29 11:30:33;;;;;;;0.80;0.60;;;26.70;57.60;;;;;;923945;152;27810;-74
2023/08/29 11:33:03;;;;;;;1.82;0.80;;;26.70;57.80;;;;;;922049;152;27358;-74
2023/08/29 11:35:29;;;;;;;1.02;0.82;;;26.70;57.60;;;;;;924776;151;27391;-74
2023/08/29 11:37:56;;;;;;;1.25;0.80;;;26.80;57.50;;;;;;923767;152;28694;-74
2023/08/29 11:40:23;;;;;;;0.60;0.60;;;26.80;57.80;;;;;;924767;152;27380;-74
2023/08/29 11:42:49;;;;;;;0.75;0.72;;;26.90;57.50;;;;;;925002;152;27360;-74
2023/08/29 11:45:16;;;;;;;0.50;0.50;;;26.90;57.20;;;;;;923307;151;27351;-74
2023/08/29 11:47:43;;;;;;;1.42;0.57;;;27.00;57.00;;;;;;923805;151;27376;-74
2023/08/29 11:50:10;;;;;;;0.37;0.37;;;27.00;56.50;;;;;;922378;151;27375;-74
2023/08/29 11:52:35;;;;;;;1.12;0.82;;;27.00;56.40;;;;;;922686;151;27382;-74
2023/08/29 11:55:04;;;;;;;1.12;0.35;;;27.10;56.20;;;;;;922468;151;27344;-74
2023/08/29 11:57:30;;;;;;;2.15;0.70;;;27.10;56.10;;;;;;921523;151;27384;-75
2023/08/29 11:59:56;;;;;;;2.10;0.65;;;27.10;56.10;;;;;;921595;151;27420;-74
2023/08/29 12:02:22;;;;;;;1.07;0.65;;;27.10;55.90;;;;;;941404;149;27391;-74
2023/08/29 12:04:48;;;;;;;1.00;0.90;;;27.00;55.70;;;;;;928661;151;27466;-74
2023/08/29 12:07:15;;;;;;;0.70;0.65;;;27.00;55.70;;;;;;927305;151;27737;-75
2023/08/29 12:09:42;;;;;;;2.12;0.90;;;26.90;55.70;;;;;;942413;149;27516;-75
2023/08/29 12:12:08;;;;;;;1.07;0.93;;;26.80;56.00;;;;;;943257;149;27333;-74
2023/08/29 12:14:50;;;;;;;1.60;1.07;;;26.60;56.00;;;;;;943396;149;27873;-74
2023/08/29 12:17:17;;;;;;;0.85;0.82;;;26.50;56.30;;;;;;939939;148;28644;-74
2023/08/29 12:19:43;;;;;;;1.15;0.90;;;26.30;57.10;;;;;;941622;148;27464;-75
2023/08/29 12:22:10;;;;;;;1.17;0.80;;;26.10;57.10;;;;;;942071;148;27375;-74
2023/08/29 12:24:36;;;;;;;0.93;0.70;;;26.00;57.50;;;;;;942843;149;27266;-74
2023/08/29 12:27:04;;;;;;;2.45;1.00;;;25.90;58.00;;;;;;944102;149;27362;-74
2023/08/29 12:29:29;;;;;;;0.80;0.80;;;25.90;58.40;;;;;;943206;148;27354;-75
2023/08/29 12:31:56;;;;;;;2.45;0.80;;;25.90;58.70;;;;;;942663;148;27444;-75
2023/08/29 12:34:23;;;;;;;1.15;0.68;;;25.90;58.80;;;;;;943313;150;27379;-75
2023/08/29 12:36:49;;;;;;;1.15;0.80;;;25.90;58.80;;;;;;941854;148;27358;-75
2023/08/29 12:39:16;;;;;;;0.70;0.70;;;26.00;58.60;;;;;;943356;150;27473;-75
2023/08/29 12:41:42;;;;;;;0.95;0.88;;;26.10;58.60;;;;;;943157;148;27511;-75
2023/08/29 12:44:09;;;;;;;0.72;0.72;;;26.10;58.40;;;;;;944687;151;27325;-75
2023/08/29 12:46:35;;;;;;;1.27;0.62;;;26.10;58.30;;;;;;941935;148;27346;-75
2023/08/29 12:49:05;;;;;;;1.45;0.68;;;26.00;58.20;;;;;;941237;150;27303;-75